sensor_id;sensor_type;location;lat;lon;timestamp;pressure;altitude;pressure_sealevel;temperature;humidity
44872;BME280;30602;51.060;17.226;2023-05-19T00:01:10;102611.02;;;9.65;95.14
44872;BME280;30602;51.060;17.226;2023-05-19T00:04:48;102607.83;;;9.63;94.90
44872;BME280;30602;51.060;17.226;2023-05-19T00:08:30;102607.47;;;9.64;94.48
44872;BME280;30602;51.060;17.226;2023-05-19T00:11:50;102603.77;;;9.59;94.63
44872;BME280;30602;51.060;17.226;2023-05-19T00:15:54;102604.70;;;9.65;93.72
44872;BME280;30602;51.060;17.226;2023-05-19T00:19:44;102606.49;;;9.58;94.38
44872;BME280;30602;51.060;17.226;2023-05-19T00:23:26;102605.93;;;9.46;95.34
44872;BME280;30602;51.060;17.226;2023-05-19T00:26:57;102606.32;;;9.31;96.17
44872;BME280;30602;51.060;17.226;2023-05-19T00:30:38;102604.03;;;9.24;96.84
44872;BME280;30602;51.060;17.226;2023-05-19T00:34:28;102600.09;;;9.13;97.34
44872;BME280;30602;51.060;17.226;2023-05-19T00:38:38;102596.63;;;9.05;97.09
44872;BME280;30602;51.060;17.226;2023-05-19T00:46:40;102603.06;;;8.86;97.52
44872;BME280;30602;51.060;17.226;2023-05-19T00:50:30;102599.33;;;8.78;98.62
44872;BME280;30602;51.060;17.226;2023-05-19T00:53:49;102599.52;;;8.81;98.61
44872;BME280;30602;51.060;17.226;2023-05-19T00:57:31;102598.76;;;8.74;99.04
44872;BME280;30602;51.060;17.226;2023-05-19T01:01:18;102602.50;;;8.74;99.06
44872;BME280;30602;51.060;17.226;2023-05-19T01:04:42;102602.59;;;8.74;98.84
44872;BME280;30602;51.060;17.226;2023-05-19T01:08:45;102601.21;;;8.65;98.97
44872;BME280;30602;51.060;17.226;2023-05-19T01:12:04;102601.60;;;8.67;98.67
44872;BME280;30602;51.060;17.226;2023-05-19T01:31:49;102596.48;;;8.50;100.00
44872;BME280;30602;51.060;17.226;2023-05-19T01:35:35;102601.19;;;8.49;100.00
44872;BME280;30602;51.060;17.226;2023-05-19T01:39:16;102598.06;;;8.46;100.00
44872;BME280;30602;51.060;17.226;2023-05-19T01:43:28;102598.50;;;8.55;100.00
44872;BME280;30602;51.060;17.226;2023-05-19T01:47:11;102601.55;;;8.49;100.00
44872;BME280;30602;51.060;17.226;2023-05-19T01:51:23;102590.30;;;8.35;100.00
44872;BME280;30602;51.060;17.226;2023-05-19T01:54:41;102600.83;;;8.45;100.00
44872;BME280;30602;51.060;17.226;2023-05-19T01:59:05;102598.39;;;8.40;100.00
44872;BME280;30602;51.060;17.226;2023-05-19T02:18:45;102594.30;;;8.37;100.00
44872;BME280;30602;51.060;17.226;2023-05-19T02:22:48;102593.03;;;8.39;100.00
44872;BME280;30602;51.060;17.226;2023-05-19T02:26:28;102582.66;;;8.43;100.00
44872;BME280;30602;51.060;17.226;2023-05-19T02:30:25;102585.12;;;8.45;100.00
44872;BME280;30602;51.060;17.226;2023-05-19T02:34:35;102580.47;;;8.50;100.00
44872;BME280;30602;51.060;17.226;2023-05-19T02:38:24;102583.51;;;8.48;100.00
44872;BME280;30602;51.060;17.226;2023-05-19T02:42:05;102581.30;;;8.52;100.00
44872;BME280;30602;51.060;17.226;2023-05-19T02:45:35;102576.38;;;8.47;100.00
44872;BME280;30602;51.060;17.226;2023-05-19T02:49:14;102575.87;;;8.46;100.00
44872;BME280;30602;51.060;17.226;2023-05-19T02:53:23;102580.51;;;8.46;100.00
44872;BME280;30602;51.060;17.226;2023-05-19T02:57:28;102582.18;;;8.47;100.00
44872;BME280;30602;51.060;17.226;2023-05-19T03:01:00;102578.77;;;8.46;100.00
44872;BME280;30602;51.060;17.226;2023-05-19T03:05:00;102581.53;;;8.46;100.00
44872;BME280;30602;51.060;17.226;2023-05-19T03:08:42;102582.34;;;8.57;100.00
44872;BME280;30602;51.060;17.226;2023-05-19T03:12:01;102576.97;;;8.64;100.00
44872;BME280;30602;51.060;17.226;2023-05-19T03:15:58;102578.02;;;8.64;100.00
44872;BME280;30602;51.060;17.226;2023-05-19T03:19:59;102573.62;;;8.73;100.00
44872;BME280;30602;51.060;17.226;2023-05-19T03:23:20;102575.80;;;8.74;100.00
44872;BME280;30602;51.060;17.226;2023-05-19T03:27:36;102577.41;;;8.73;100.00
44872;BME280;30602;51.060;17.226;2023-05-19T03:31:31;102555.90;;;8.70;100.00
44872;BME280;30602;51.060;17.226;2023-05-19T03:35:15;102572.75;;;8.78;100.00
44872;BME280;30602;51.060;17.226;2023-05-19T03:39:38;102580.20;;;8.80;100.00
44872;BME280;30602;51.060;17.226;2023-05-19T03:43:21;102582.94;;;8.88;100.00
44872;BME280;30602;51.060;17.226;2023-05-19T03:47:14;102586.96;;;8.88;100.00
44872;BME280;30602;51.060;17.226;2023-05-19T03:50:44;102591.56;;;8.92;100.00
44872;BME280;30602;51.060;17.226;2023-05-19T03:55:01;102585.79;;;9.00;100.00
44872;BME280;30602;51.060;17.226;2023-05-19T03:58:24;102588.35;;;9.11;100.00
44872;BME280;30602;51.060;17.226;2023-05-19T04:02:14;102587.34;;;9.17;100.00
44872;BME280;30602;51.060;17.226;2023-05-19T04:06:11;102591.78;;;9.16;100.00
44872;BME280;30602;51.060;17.226;2023-05-19T04:09:58;102592.09;;;9.23;100.00
44872;BME280;30602;51.060;17.226;2023-05-19T04:13:33;102589.63;;;9.23;100.00
44872;BME280;30602;51.060;17.226;2023-05-19T04:16:54;102595.44;;;9.31;100.00
44872;BME280;30602;51.060;17.226;2023-05-19T04:20:16;102594.66;;;9.46;100.00
44872;BME280;30602;51.060;17.226;2023-05-19T04:23:37;102598.48;;;9.56;100.00
44872;BME280;30602;51.060;17.226;2023-05-19T04:27:48;102596.59;;;9.59;100.00
44872;BME280;30602;51.060;17.226;2023-05-19T04:32:09;102591.03;;;9.66;99.76
44872;BME280;30602;51.060;17.226;2023-05-19T04:35:55;102595.19;;;9.75;99.32
44872;BME280;30602;51.060;17.226;2023-05-19T04:39:18;102583.55;;;9.77;98.97
44872;BME280;30602;51.060;17.226;2023-05-19T04:43:12;102577.71;;;9.89;97.76
44872;BME280;30602;51.060;17.226;2023-05-19T04:46:42;102579.20;;;9.83;97.00
44872;BME280;30602;51.060;17.226;2023-05-19T04:50:21;102583.59;;;9.77;97.58
44872;BME280;30602;51.060;17.226;2023-05-19T04:54:03;102576.95;;;9.77;97.83
44872;BME280;30602;51.060;17.226;2023-05-19T04:57:54;102585.77;;;9.76;97.27
44872;BME280;30602;51.060;17.226;2023-05-19T05:01:45;102586.31;;;9.73;97.60
44872;BME280;30602;51.060;17.226;2023-05-19T05:05:07;102587.32;;;9.72;97.53
44872;BME280;30602;51.060;17.226;2023-05-19T05:13:05;102593.59;;;9.75;96.65
44872;BME280;30602;51.060;17.226;2023-05-19T05:17:11;102592.28;;;9.86;97.20
44872;BME280;30602;51.060;17.226;2023-05-19T05:20:33;102596.19;;;9.84;94.91
44872;BME280;30602;51.060;17.226;2023-05-19T05:24:12;102600.34;;;9.98;94.78
44872;BME280;30602;51.060;17.226;2023-05-19T05:28:24;102597.53;;;10.13;95.49
44872;BME280;30602;51.060;17.226;2023-05-19T05:31:45;102597.67;;;10.04;94.86
44872;BME280;30602;51.060;17.226;2023-05-19T05:35:59;102598.29;;;10.11;95.67
44872;BME280;30602;51.060;17.226;2023-05-19T05:39:33;102602.20;;;10.09;95.34
44872;BME280;30602;51.060;17.226;2023-05-19T05:42:56;102596.13;;;10.17;95.80
44872;BME280;30602;51.060;17.226;2023-05-19T05:46:29;102583.91;;;10.05;94.88
44872;BME280;30602;51.060;17.226;2023-05-19T05:49:49;102582.08;;;10.17;95.20
44872;BME280;30602;51.060;17.226;2023-05-19T05:53:34;102593.02;;;10.18;94.47
44872;BME280;30602;51.060;17.226;2023-05-19T05:57:25;102595.10;;;10.24;94.77
44872;BME280;30602;51.060;17.226;2023-05-19T06:01:06;102595.61;;;10.21;94.99
44872;BME280;30602;51.060;17.226;2023-05-19T06:04:59;102596.33;;;10.32;94.81
44872;BME280;30602;51.060;17.226;2023-05-19T06:08:20;102599.98;;;10.57;95.03
44872;BME280;30602;51.060;17.226;2023-05-19T06:11:37;102606.14;;;10.53;94.39
44872;BME280;30602;51.060;17.226;2023-05-19T06:15:28;102612.13;;;10.53;94.20
44872;BME280;30602;51.060;17.226;2023-05-19T06:19:03;102607.92;;;10.42;93.62
44872;BME280;30602;51.060;17.226;2023-05-19T06:23:03;102612.71;;;10.49;94.39
44872;BME280;30602;51.060;17.226;2023-05-19T06:26:42;102613.32;;;10.52;94.60
44872;BME280;30602;51.060;17.226;2023-05-19T06:30:37;102613.41;;;10.54;94.69
44872;BME280;30602;51.060;17.226;2023-05-19T06:33:59;102615.87;;;10.56;94.71
44872;BME280;30602;51.060;17.226;2023-05-19T06:37:23;102612.94;;;10.50;94.52
44872;BME280;30602;51.060;17.226;2023-05-19T06:40:45;102619.58;;;10.48;94.35
44872;BME280;30602;51.060;17.226;2023-05-19T06:45:09;102618.43;;;10.51;95.26
44872;BME280;30602;51.060;17.226;2023-05-19T06:48:29;102619.44;;;10.61;95.09
44872;BME280;30602;51.060;17.226;2023-05-19T06:51:50;102623.59;;;10.68;95.17
44872;BME280;30602;51.060;17.226;2023-05-19T06:55:09;102624.33;;;10.61;93.74
44872;BME280;30602;51.060;17.226;2023-05-19T06:59:09;102612.45;;;10.54;93.66
44872;BME280;30602;51.060;17.226;2023-05-19T07:02:50;102626.82;;;10.54;93.18
44872;BME280;30602;51.060;17.226;2023-05-19T07:06:10;102629.56;;;10.63;94.30
44872;BME280;30602;51.060;17.226;2023-05-19T07:09:59;102628.26;;;10.64;93.90
44872;BME280;30602;51.060;17.226;2023-05-19T07:13:37;102611.80;;;10.61;93.86
44872;BME280;30602;51.060;17.226;2023-05-19T07:16:57;102629.92;;;10.75;93.85
44872;BME280;30602;51.060;17.226;2023-05-19T07:20:27;102629.73;;;10.80;93.43
44872;BME280;30602;51.060;17.226;2023-05-19T07:23:57;102629.75;;;10.77;91.48
44872;BME280;30602;51.060;17.226;2023-05-19T07:27:16;102627.72;;;10.97;92.62
44872;BME280;30602;51.060;17.226;2023-05-19T07:30:54;102630.05;;;11.02;91.07
44872;BME280;30602;51.060;17.226;2023-05-19T07:34:55;102627.78;;;11.03;90.16
44872;BME280;30602;51.060;17.226;2023-05-19T07:38:34;102612.35;;;11.09;90.33
44872;BME280;30602;51.060;17.226;2023-05-19T07:41:59;102626.58;;;11.23;91.10
44872;BME280;30602;51.060;17.226;2023-05-19T07:45:22;102630.06;;;11.18;89.53
44872;BME280;30602;51.060;17.226;2023-05-19T07:48:41;102633.01;;;11.18;90.44
44872;BME280;30602;51.060;17.226;2023-05-19T07:52:49;102633.42;;;11.22;90.15
44872;BME280;30602;51.060;17.226;2023-05-19T07:56:52;102628.81;;;11.15;88.73
44872;BME280;30602;51.060;17.226;2023-05-19T08:00:33;102634.28;;;11.10;88.58
44872;BME280;30602;51.060;17.226;2023-05-19T08:04:27;102635.98;;;11.02;87.98
44872;BME280;30602;51.060;17.226;2023-05-19T08:07:45;102631.88;;;11.05;88.85
44872;BME280;30602;51.060;17.226;2023-05-19T08:11:50;102632.66;;;11.11;89.14
44872;BME280;30602;51.060;17.226;2023-05-19T08:15:12;102630.08;;;11.20;88.93
44872;BME280;30602;51.060;17.226;2023-05-19T08:18:33;102630.47;;;11.32;89.04
44872;BME280;30602;51.060;17.226;2023-05-19T08:22:14;102628.00;;;11.34;87.96
44872;BME280;30602;51.060;17.226;2023-05-19T08:25:34;102622.27;;;11.41;89.23
44872;BME280;30602;51.060;17.226;2023-05-19T08:29:19;102618.71;;;11.42;87.02
44872;BME280;30602;51.060;17.226;2023-05-19T08:32:58;102616.41;;;11.61;88.47
44872;BME280;30602;51.060;17.226;2023-05-19T08:36:29;102617.62;;;11.56;87.51
44872;BME280;30602;51.060;17.226;2023-05-19T08:40:15;102614.95;;;11.63;86.14
44872;BME280;30602;51.060;17.226;2023-05-19T08:43:53;102618.31;;;11.73;86.71
44872;BME280;30602;51.060;17.226;2023-05-19T08:47:33;102619.98;;;11.86;86.86
44872;BME280;30602;51.060;17.226;2023-05-19T08:51:19;102614.77;;;11.76;86.01
44872;BME280;30602;51.060;17.226;2023-05-19T08:58:38;102617.56;;;11.91;87.42
44872;BME280;30602;51.060;17.226;2023-05-19T09:02:30;102611.31;;;11.91;86.76
44872;BME280;30602;51.060;17.226;2023-05-19T09:05:50;102611.38;;;11.96;87.64
44872;BME280;30602;51.060;17.226;2023-05-19T09:09:29;102605.31;;;12.03;87.66
44872;BME280;30602;51.060;17.226;2023-05-19T09:13:23;102612.82;;;12.08;86.24
44872;BME280;30602;51.060;17.226;2023-05-19T09:17:14;102614.33;;;12.05;85.98
44872;BME280;30602;51.060;17.226;2023-05-19T09:20:39;102617.82;;;12.12;86.08
44872;BME280;30602;51.060;17.226;2023-05-19T09:24:04;102604.28;;;12.00;85.51
44872;BME280;30602;51.060;17.226;2023-05-19T09:27:45;102608.35;;;12.05;85.49
44872;BME280;30602;51.060;17.226;2023-05-19T09:31:06;102608.24;;;12.14;86.40
44872;BME280;30602;51.060;17.226;2023-05-19T09:34:52;102585.66;;;12.01;84.22
44872;BME280;30602;51.060;17.226;2023-05-19T09:38:32;102590.00;;;12.37;84.63
44872;BME280;30602;51.060;17.226;2023-05-19T09:41:53;102594.92;;;12.38;83.36
44872;BME280;30602;51.060;17.226;2023-05-19T09:46:04;102592.21;;;12.38;86.35
44872;BME280;30602;51.060;17.226;2023-05-19T09:50:09;102589.86;;;12.44;82.97
44872;BME280;30602;51.060;17.226;2023-05-19T09:53:53;102547.02;;;12.24;83.14
44872;BME280;30602;51.060;17.226;2023-05-19T10:01:23;102583.79;;;12.24;84.31
44872;BME280;30602;51.060;17.226;2023-05-19T10:04:44;102581.62;;;12.20;84.84
44872;BME280;30602;51.060;17.226;2023-05-19T10:08:28;102572.29;;;12.23;85.11
44872;BME280;30602;51.060;17.226;2023-05-19T10:11:50;102572.11;;;12.40;86.05
44872;BME280;30602;51.060;17.226;2023-05-19T10:15:30;102572.42;;;12.55;83.72
44872;BME280;30602;51.060;17.226;2023-05-19T10:18:52;102567.56;;;12.76;82.75
44872;BME280;30602;51.060;17.226;2023-05-19T10:22:44;102568.84;;;12.74;82.94
44872;BME280;30602;51.060;17.226;2023-05-19T10:26:25;102572.63;;;12.64;82.47
44872;BME280;30602;51.060;17.226;2023-05-19T10:29:49;102565.89;;;12.63;82.13
44872;BME280;30602;51.060;17.226;2023-05-19T10:49:09;102561.67;;;12.52;85.06
44872;BME280;30602;51.060;17.226;2023-05-19T10:53:35;102567.03;;;12.45;84.45
44872;BME280;30602;51.060;17.226;2023-05-19T10:57:00;102571.39;;;12.57;84.42
44872;BME280;30602;51.060;17.226;2023-05-19T11:04:08;102572.66;;;12.64;84.65
44872;BME280;30602;51.060;17.226;2023-05-19T11:08:33;102568.45;;;12.70;84.62
44872;BME280;30602;51.060;17.226;2023-05-19T11:11:54;102565.45;;;12.65;83.24
44872;BME280;30602;51.060;17.226;2023-05-19T11:15:15;102570.13;;;12.64;84.22
44872;BME280;30602;51.060;17.226;2023-05-19T11:23:08;102569.23;;;12.37;85.10
44872;BME280;30602;51.060;17.226;2023-05-19T11:31:06;102562.84;;;12.36;84.93
44872;BME280;30602;51.060;17.226;2023-05-19T11:34:48;102569.44;;;12.41;85.84
44872;BME280;30602;51.060;17.226;2023-05-19T11:38:30;102567.51;;;12.36;87.02
44872;BME280;30602;51.060;17.226;2023-05-19T11:42:24;102568.66;;;12.30;86.98
44872;BME280;30602;51.060;17.226;2023-05-19T11:45:44;102569.66;;;12.22;87.01
44872;BME280;30602;51.060;17.226;2023-05-19T11:49:38;102570.41;;;12.26;87.12
44872;BME280;30602;51.060;17.226;2023-05-19T11:53:25;102570.38;;;12.32;88.33
44872;BME280;30602;51.060;17.226;2023-05-19T11:56:52;102567.56;;;12.27;86.65
44872;BME280;30602;51.060;17.226;2023-05-19T12:00:39;102560.70;;;12.33;86.74
44872;BME280;30602;51.060;17.226;2023-05-19T12:04:08;102542.23;;;12.36;86.07
44872;BME280;30602;51.060;17.226;2023-05-19T12:08:03;102563.72;;;12.66;85.25
44872;BME280;30602;51.060;17.226;2023-05-19T12:12:03;102557.97;;;12.75;84.69
44872;BME280;30602;51.060;17.226;2023-05-19T12:15:28;102559.89;;;12.85;85.69
44872;BME280;30602;51.060;17.226;2023-05-19T12:19:19;102555.68;;;12.72;86.29
44872;BME280;30602;51.060;17.226;2023-05-19T12:23:07;102560.42;;;12.59;86.22
44872;BME280;30602;51.060;17.226;2023-05-19T12:26:30;102563.43;;;12.50;86.72
44872;BME280;30602;51.060;17.226;2023-05-19T12:30:29;102562.45;;;12.44;87.12
44872;BME280;30602;51.060;17.226;2023-05-19T12:34:11;102564.02;;;12.47;87.42
44872;BME280;30602;51.060;17.226;2023-05-19T12:37:40;102567.65;;;12.44;88.10
44872;BME280;30602;51.060;17.226;2023-05-19T12:41:25;102566.84;;;12.40;88.20
44872;BME280;30602;51.060;17.226;2023-05-19T12:45:20;102565.80;;;12.48;87.29
44872;BME280;30602;51.060;17.226;2023-05-19T12:49:36;102562.82;;;12.50;87.24
44872;BME280;30602;51.060;17.226;2023-05-19T12:53:19;102564.30;;;12.53;86.75
44872;BME280;30602;51.060;17.226;2023-05-19T12:56:50;102550.52;;;12.48;86.46
44872;BME280;30602;51.060;17.226;2023-05-19T13:00:17;102553.97;;;12.66;86.72
44872;BME280;30602;51.060;17.226;2023-05-19T13:04:05;102554.09;;;12.67;86.06
44872;BME280;30602;51.060;17.226;2023-05-19T13:08:23;102558.09;;;12.64;86.08
44872;BME280;30602;51.060;17.226;2023-05-19T13:11:51;102552.70;;;12.68;87.57
44872;BME280;30602;51.060;17.226;2023-05-19T13:15:13;102551.21;;;12.73;86.91
44872;BME280;30602;51.060;17.226;2023-05-19T13:19:18;102554.04;;;12.74;86.80
44872;BME280;30602;51.060;17.226;2023-05-19T13:23:12;102555.08;;;12.79;86.85
44872;BME280;30602;51.060;17.226;2023-05-19T13:26:58;102557.05;;;12.82;86.48
44872;BME280;30602;51.060;17.226;2023-05-19T13:30:32;102554.62;;;12.92;86.92
44872;BME280;30602;51.060;17.226;2023-05-19T13:34:46;102554.42;;;13.01;85.34
44872;BME280;30602;51.060;17.226;2023-05-19T13:38:37;102546.36;;;13.22;83.78
44872;BME280;30602;51.060;17.226;2023-05-19T13:42:32;102543.13;;;13.21;83.74
44872;BME280;30602;51.060;17.226;2023-05-19T13:46:10;102544.16;;;13.22;85.77
44872;BME280;30602;51.060;17.226;2023-05-19T13:49:52;102550.50;;;13.17;85.60
44872;BME280;30602;51.060;17.226;2023-05-19T13:53:16;102547.00;;;13.07;86.21
44872;BME280;30602;51.060;17.226;2023-05-19T13:57:01;102547.72;;;13.16;85.76
44872;BME280;30602;51.060;17.226;2023-05-19T14:01:10;102550.11;;;13.18;85.55
44872;BME280;30602;51.060;17.226;2023-05-19T14:04:57;102545.30;;;13.17;85.59
44872;BME280;30602;51.060;17.226;2023-05-19T14:08:29;102547.67;;;13.09;86.69
44872;BME280;30602;51.060;17.226;2023-05-19T14:11:55;102545.98;;;13.03;86.15
44872;BME280;30602;51.060;17.226;2023-05-19T14:15:22;102547.13;;;13.07;87.04
44872;BME280;30602;51.060;17.226;2023-05-19T14:19:03;102548.59;;;13.11;86.75
44872;BME280;30602;51.060;17.226;2023-05-19T14:22:32;102550.98;;;13.12;86.74
44872;BME280;30602;51.060;17.226;2023-05-19T14:26:01;102550.17;;;13.04;85.99
44872;BME280;30602;51.060;17.226;2023-05-19T14:29:20;102547.80;;;13.10;86.71
44872;BME280;30602;51.060;17.226;2023-05-19T14:33:47;102548.68;;;13.18;86.70
44872;BME280;30602;51.060;17.226;2023-05-19T14:37:30;102539.60;;;13.17;85.35
44872;BME280;30602;51.060;17.226;2023-05-19T14:41:50;102541.28;;;13.02;85.65
44872;BME280;30602;51.060;17.226;2023-05-19T14:45:53;102536.09;;;13.09;86.32
44872;BME280;30602;51.060;17.226;2023-05-19T14:49:32;102537.85;;;13.16;86.90
44872;BME280;30602;51.060;17.226;2023-05-19T14:53:03;102539.97;;;13.20;85.81
44872;BME280;30602;51.060;17.226;2023-05-19T14:56:23;102535.98;;;13.20;85.97
44872;BME280;30602;51.060;17.226;2023-05-19T14:59:45;102537.95;;;13.16;86.53
44872;BME280;30602;51.060;17.226;2023-05-19T15:03:30;102533.61;;;13.25;86.85
44872;BME280;30602;51.060;17.226;2023-05-19T15:07:15;102532.33;;;13.28;86.68
44872;BME280;30602;51.060;17.226;2023-05-19T15:10:55;102536.40;;;13.27;86.13
44872;BME280;30602;51.060;17.226;2023-05-19T15:14:35;102533.24;;;13.20;85.49
44872;BME280;30602;51.060;17.226;2023-05-19T15:22:16;102538.56;;;13.10;86.03
44872;BME280;30602;51.060;17.226;2023-05-19T15:25:53;102537.98;;;13.06;86.12
44872;BME280;30602;51.060;17.226;2023-05-19T15:29:38;102532.29;;;13.04;86.33
44872;BME280;30602;51.060;17.226;2023-05-19T15:33:02;102537.93;;;13.16;86.66
44872;BME280;30602;51.060;17.226;2023-05-19T15:36:43;102534.81;;;13.15;86.48
44872;BME280;30602;51.060;17.226;2023-05-19T15:40:29;102533.23;;;13.07;85.86
44872;BME280;30602;51.060;17.226;2023-05-19T15:43:54;102531.85;;;13.06;86.87
44872;BME280;30602;51.060;17.226;2023-05-19T15:47:22;102518.75;;;13.04;87.18
44872;BME280;30602;51.060;17.226;2023-05-19T15:50:41;102521.66;;;13.00;86.76
44872;BME280;30602;51.060;17.226;2023-05-19T15:54:56;102527.47;;;12.99;86.81
44872;BME280;30602;51.060;17.226;2023-05-19T15:58:37;102522.25;;;13.02;87.17
44872;BME280;30602;51.060;17.226;2023-05-19T16:01:58;102518.71;;;13.04;87.79
44872;BME280;30602;51.060;17.226;2023-05-19T16:06:18;102517.65;;;13.03;87.75
44872;BME280;30602;51.060;17.226;2023-05-19T16:10:00;102517.63;;;13.01;86.51
44872;BME280;30602;51.060;17.226;2023-05-19T16:14:07;102522.23;;;13.10;87.20
44872;BME280;30602;51.060;17.226;2023-05-19T16:17:50;102520.74;;;13.11;85.80
44872;BME280;30602;51.060;17.226;2023-05-19T16:21:14;102520.94;;;13.05;87.09
44872;BME280;30602;51.060;17.226;2023-05-19T16:25:17;102520.58;;;12.99;87.19
44872;BME280;30602;51.060;17.226;2023-05-19T16:28:38;102519.62;;;12.98;88.04
44872;BME280;30602;51.060;17.226;2023-05-19T16:32:20;102522.12;;;12.93;88.34
44872;BME280;30602;51.060;17.226;2023-05-19T16:35:46;102519.98;;;12.88;88.60
44872;BME280;30602;51.060;17.226;2023-05-19T16:39:39;102516.23;;;12.85;90.08
44872;BME280;30602;51.060;17.226;2023-05-19T16:43:07;102520.33;;;12.87;90.76
44872;BME280;30602;51.060;17.226;2023-05-19T16:47:10;102517.84;;;12.82;90.85
44872;BME280;30602;51.060;17.226;2023-05-19T16:50:31;102508.48;;;12.88;89.89
44872;BME280;30602;51.060;17.226;2023-05-19T16:54:11;102498.65;;;12.91;90.05
44872;BME280;30602;51.060;17.226;2023-05-19T16:58:04;102507.30;;;12.91;89.86
44872;BME280;30602;51.060;17.226;2023-05-19T17:01:49;102508.62;;;12.87;89.04
44872;BME280;30602;51.060;17.226;2023-05-19T17:05:12;102515.71;;;12.90;90.29
44872;BME280;30602;51.060;17.226;2023-05-19T17:08:32;102514.60;;;12.86;91.05
44872;BME280;30602;51.060;17.226;2023-05-19T17:11:55;102514.59;;;12.79;91.48
44872;BME280;30602;51.060;17.226;2023-05-19T17:15:39;102515.78;;;12.77;91.60
44872;BME280;30602;51.060;17.226;2023-05-19T17:19:07;102517.63;;;12.76;91.58
44872;BME280;30602;51.060;17.226;2023-05-19T17:23:30;102516.21;;;12.70;91.86
44872;BME280;30602;51.060;17.226;2023-05-19T17:27:10;102509.22;;;12.66;91.41
44872;BME280;30602;51.060;17.226;2023-05-19T17:30:58;102522.56;;;12.77;91.55
44872;BME280;30602;51.060;17.226;2023-05-19T17:38:21;102529.06;;;12.75;92.19
44872;BME280;30602;51.060;17.226;2023-05-19T17:42:06;102531.46;;;12.75;92.89
44872;BME280;30602;51.060;17.226;2023-05-19T17:46:20;102530.91;;;12.68;93.88
44872;BME280;30602;51.060;17.226;2023-05-19T17:50:09;102533.05;;;12.58;93.48
44872;BME280;30602;51.060;17.226;2023-05-19T17:54:00;102530.34;;;12.55;94.20
44872;BME280;30602;51.060;17.226;2023-05-19T17:57:52;102531.04;;;12.48;94.10
44872;BME280;30602;51.060;17.226;2023-05-19T18:01:57;102527.27;;;12.48;93.89
44872;BME280;30602;51.060;17.226;2023-05-19T18:05:21;102529.62;;;12.47;94.06
44872;BME280;30602;51.060;17.226;2023-05-19T18:08:49;102527.86;;;12.49;94.66
44872;BME280;30602;51.060;17.226;2023-05-19T18:12:14;102516.49;;;12.45;94.44
44872;BME280;30602;51.060;17.226;2023-05-19T18:16:15;102525.48;;;12.50;94.81
44872;BME280;30602;51.060;17.226;2023-05-19T18:20:07;102526.70;;;12.46;95.18
44872;BME280;30602;51.060;17.226;2023-05-19T18:23:27;102529.55;;;12.39;96.01
44872;BME280;30602;51.060;17.226;2023-05-19T18:26:46;102529.56;;;12.34;95.64
44872;BME280;30602;51.060;17.226;2023-05-19T18:30:56;102531.16;;;12.32;96.52
44872;BME280;30602;51.060;17.226;2023-05-19T18:34:33;102522.48;;;12.25;96.62
44872;BME280;30602;51.060;17.226;2023-05-19T18:38:16;102528.55;;;12.26;96.55
44872;BME280;30602;51.060;17.226;2023-05-19T18:45:25;102535.81;;;12.23;96.76
44872;BME280;30602;51.060;17.226;2023-05-19T18:48:50;102537.44;;;12.22;97.33
44872;BME280;30602;51.060;17.226;2023-05-19T18:52:21;102530.81;;;12.23;96.86
44872;BME280;30602;51.060;17.226;2023-05-19T18:56:00;102528.87;;;12.20;96.54
44872;BME280;30602;51.060;17.226;2023-05-19T19:00:05;102541.14;;;12.27;96.79
44872;BME280;30602;51.060;17.226;2023-05-19T19:04:08;102546.91;;;12.25;97.24
44872;BME280;30602;51.060;17.226;2023-05-19T19:07:31;102549.91;;;12.22;97.75
44872;BME280;30602;51.060;17.226;2023-05-19T19:11:42;102546.89;;;12.12;98.01
44872;BME280;30602;51.060;17.226;2023-05-19T19:15:16;102558.75;;;12.16;98.26
44872;BME280;30602;51.060;17.226;2023-05-19T19:22:40;102564.33;;;12.10;97.95
44872;BME280;30602;51.060;17.226;2023-05-19T19:26:04;102569.14;;;12.12;98.18
44872;BME280;30602;51.060;17.226;2023-05-19T19:29:28;102553.37;;;12.01;98.54
44872;BME280;30602;51.060;17.226;2023-05-19T19:33:45;102567.14;;;12.17;98.60
44872;BME280;30602;51.060;17.226;2023-05-19T19:37:13;102563.72;;;12.18;98.23
44872;BME280;30602;51.060;17.226;2023-05-19T19:40:59;102566.88;;;12.13;98.99
44872;BME280;30602;51.060;17.226;2023-05-19T19:44:40;102560.53;;;12.13;98.57
44872;BME280;30602;51.060;17.226;2023-05-19T19:48:07;102570.02;;;12.20;98.33
44872;BME280;30602;51.060;17.226;2023-05-19T19:51:42;102569.97;;;12.14;99.38
44872;BME280;30602;51.060;17.226;2023-05-19T19:55:23;102565.38;;;12.13;99.35
44872;BME280;30602;51.060;17.226;2023-05-19T19:59:08;102556.14;;;12.00;99.25
44872;BME280;30602;51.060;17.226;2023-05-19T20:02:39;102561.65;;;12.02;99.22
44872;BME280;30602;51.060;17.226;2023-05-19T20:06:07;102578.56;;;12.06;99.39
44872;BME280;30602;51.060;17.226;2023-05-19T20:09:52;102576.08;;;12.06;99.55
44872;BME280;30602;51.060;17.226;2023-05-19T20:13:50;102576.47;;;12.13;99.47
44872;BME280;30602;51.060;17.226;2023-05-19T20:18:09;102505.09;;;11.70;99.33
44872;BME280;30602;51.060;17.226;2023-05-19T20:22:12;102575.35;;;12.12;99.82
44872;BME280;30602;51.060;17.226;2023-05-19T20:26:29;102575.15;;;12.10;100.00
44872;BME280;30602;51.060;17.226;2023-05-19T20:30:01;102575.67;;;12.11;99.73
44872;BME280;30602;51.060;17.226;2023-05-19T20:33:51;102580.62;;;12.07;99.77
44872;BME280;30602;51.060;17.226;2023-05-19T20:39:26;102578.95;;;12.02;100.00